Time;durP1;ratioP1;P1;durP2;ratioP2;P2;SDS_P1;SDS_P2;PMS_P1;PMS_P2;Temp;Humidity;BMP_temperature;BMP_pressure;BME280_temperature;BME280_humidity;BME280_pressure;Samples;Min_cycle;Max_cycle;Signal;HPM_P1;HPM_P2
2022/04/29 00:00:11;;;;;;;7.35;2.30;;;15.30;61.60;;;;;;4187573;28;20044;-63
2022/04/29 00:02:33;;;;;;;4.65;2.35;;;15.30;61.60;;;;;;4194275;28;20055;-64
2022/04/29 00:04:56;;;;;;;6.55;3.13;;;15.30;61.60;;;;;;4173392;28;20053;-64
2022/04/29 00:07:20;;;;;;;7.45;2.42;;;15.20;61.50;;;;;;4173330;28;20049;-64
2022/04/29 00:09:42;;;;;;;7.72;2.33;;;15.30;61.60;;;;;;4159918;28;20425;-64
2022/04/29 00:12:07;;;;;;;7.05;2.58;;;15.20;61.60;;;;;;4175095;28;20041;-64
2022/04/29 00:14:30;;;;;;;6.93;2.30;;;15.30;61.80;;;;;;4175466;28;20536;-64
2022/04/29 00:16:53;;;;;;;5.95;2.13;;;15.20;61.70;;;;;;4178018;28;20119;-64
2022/04/29 00:19:16;;;;;;;5.55;2.30;;;15.20;61.70;;;;;;4187803;28;20036;-64
2022/04/29 00:21:42;;;;;;;3.78;2.40;;;15.20;61.80;;;;;;4198703;28;20059;-64
2022/04/29 00:24:09;;;;;;;6.15;2.47;;;15.20;61.80;;;;;;4176653;28;20146;-64
2022/04/29 00:26:32;;;;;;;8.55;2.33;;;15.20;61.90;;;;;;4192671;28;20059;-65
2022/04/29 00:28:57;;;;;;;5.15;2.00;;;15.20;61.90;;;;;;4191929;28;20060;-65
2022/04/29 00:31:20;;;;;;;4.95;2.13;;;15.20;62.00;;;;;;4169417;28;20432;-64
2022/04/29 00:33:42;;;;;;;5.90;2.10;;;15.20;62.00;;;;;;4172780;28;20049;-64
2022/04/29 00:36:05;;;;;;;6.45;2.55;;;15.20;62.10;;;;;;4173473;28;20056;-64
2022/04/29 00:38:28;;;;;;;5.93;2.00;;;15.20;62.10;;;;;;4173845;28;20507;-64
2022/04/29 00:40:51;;;;;;;7.43;2.65;;;15.20;62.10;;;;;;4179255;28;20041;-64
2022/04/29 00:43:14;;;;;;;2.90;2.08;;;15.20;63.00;;;;;;4204616;28;20056;-64
2022/04/29 00:45:37;;;;;;;7.30;2.67;;;15.20;62.20;;;;;;4190897;28;20485;-64
2022/04/29 00:48:00;;;;;;;15.77;2.35;;;15.20;62.10;;;;;;4190961;28;20056;-64
2022/04/29 00:50:24;;;;;;;6.93;1.98;;;15.20;62.20;;;;;;4190155;28;20541;-64
2022/04/29 00:52:49;;;;;;;5.97;2.25;;;15.10;62.10;;;;;;4190485;28;20060;-64
2022/04/29 00:55:14;;;;;;;6.30;3.13;;;15.10;62.20;;;;;;4189663;28;20538;-64
2022/04/29 00:57:44;;;;;;;3.83;1.95;;;15.10;62.20;;;;;;4189583;28;20044;-64
2022/04/29 01:00:10;;;;;;;2.38;1.83;;;15.20;62.30;;;;;;4190047;28;20048;-65
2022/04/29 01:02:33;;;;;;;10.77;3.22;;;15.10;62.30;;;;;;4204295;28;20069;-65
2022/04/29 01:05:02;;;;;;;8.13;2.28;;;15.10;62.20;;;;;;4175754;28;20132;-64
2022/04/29 01:07:25;;;;;;;7.38;2.17;;;15.10;62.30;;;;;;4190018;28;20056;-64
2022/04/29 01:09:47;;;;;;;5.43;2.35;;;15.10;62.30;;;;;;4190206;28;20067;-64
2022/04/29 01:12:10;;;;;;;5.40;2.22;;;15.10;62.30;;;;;;4172238;28;20053;-65
2022/04/29 01:14:34;;;;;;;3.38;2.20;;;15.10;62.30;;;;;;4172963;28;20045;-65
2022/04/29 01:16:58;;;;;;;7.20;2.28;;;15.10;62.40;;;;;;4181776;28;20057;-68
2022/04/29 01:19:20;;;;;;;5.15;2.38;;;15.10;62.40;;;;;;4188828;28;20131;-65
2022/04/29 01:21:43;;;;;;;6.18;2.75;;;15.10;62.40;;;;;;4189207;28;20050;-65
2022/04/29 01:24:09;;;;;;;5.63;2.80;;;15.10;62.50;;;;;;4187462;28;20431;-65
2022/04/29 01:26:32;;;;;;;8.05;2.92;;;15.10;62.40;;;;;;4189556;28;20056;-65
2022/04/29 01:28:57;;;;;;;5.35;2.90;;;15.10;62.50;;;;;;4188778;28;20052;-65
2022/04/29 01:31:24;;;;;;;5.85;2.47;;;15.10;62.50;;;;;;4180762;28;20049;-65
2022/04/29 01:33:50;;;;;;;7.75;2.58;;;15.10;62.50;;;;;;4176435;28;20071;-64
2022/04/29 01:36:12;;;;;;;7.05;2.92;;;15.00;62.50;;;;;;4176335;28;20056;-66
2022/04/29 01:38:35;;;;;;;5.65;2.75;;;15.00;62.50;;;;;;4177676;28;20087;-64
2022/04/29 01:41:00;;;;;;;5.63;2.75;;;15.00;62.50;;;;;;4166460;28;20110;-64
2022/04/29 01:43:29;;;;;;;5.90;3.00;;;15.00;62.50;;;;;;4177001;28;20057;-63
2022/04/29 01:45:54;;;;;;;4.10;2.50;;;15.00;62.60;;;;;;4191861;28;20053;-63
2022/04/29 01:48:38;;;;;;;3.80;2.72;;;15.00;62.70;;;;;;4193492;28;20066;-63
2022/04/29 01:51:09;;;;;;;8.35;2.90;;;15.00;62.70;;;;;;4188061;28;20052;-64
2022/04/29 01:53:32;;;;;;;5.07;2.33;;;15.00;62.70;;;;;;4175539;28;20057;-63
2022/04/29 01:55:56;;;;;;;3.80;2.50;;;15.00;62.80;;;;;;4174074;28;20053;-63
2022/04/29 01:58:20;;;;;;;2.90;2.53;;;15.00;62.80;;;;;;4175044;28;20045;-63
2022/04/29 02:00:42;;;;;;;8.20;2.90;;;15.00;62.80;;;;;;4178504;28;20149;-63
2022/04/29 02:03:06;;;;;;;5.68;2.63;;;15.00;62.80;;;;;;4183896;28;20051;-63
2022/04/29 02:05:31;;;;;;;6.35;3.38;;;15.00;62.80;;;;;;4191631;28;20052;-63
2022/04/29 02:07:53;;;;;;;3.45;3.05;;;14.90;62.10;;;;;;4191243;28;20048;-64
2022/04/29 02:10:16;;;;;;;9.07;3.42;;;14.90;62.80;;;;;;4190643;28;20047;-63
2022/04/29 02:12:41;;;;;;;7.10;3.20;;;15.00;62.80;;;;;;4174793;28;20059;-63
2022/04/29 02:15:12;;;;;;;6.05;3.30;;;14.90;62.80;;;;;;4173067;28;20115;-63
2022/04/29 02:17:38;;;;;;;3.90;2.90;;;14.90;62.80;;;;;;4176384;28;20469;-64
2022/04/29 02:20:02;;;;;;;5.43;3.05;;;14.90;62.80;;;;;;4190791;28;20492;-63
2022/04/29 02:22:25;;;;;;;10.00;3.33;;;14.90;62.90;;;;;;4176640;28;20051;-64
2022/04/29 02:24:47;;;;;;;8.45;3.33;;;14.90;62.80;;;;;;4166824;28;20053;-64
2022/04/29 02:27:11;;;;;;;7.35;3.63;;;14.90;63.00;;;;;;4173513;28;20049;-64
2022/04/29 02:29:41;;;;;;;8.05;3.53;;;14.90;63.00;;;;;;4174259;28;20056;-63
2022/04/29 02:32:13;;;;;;;7.93;2.92;;;14.90;63.00;;;;;;4190280;28;20044;-63
2022/04/29 02:34:40;;;;;;;6.07;3.58;;;14.90;63.00;;;;;;4184099;28;20040;-63
2022/04/29 02:37:03;;;;;;;4.80;3.20;;;14.90;63.10;;;;;;4176433;28;20053;-63
2022/04/29 02:39:26;;;;;;;6.90;3.30;;;14.90;63.10;;;;;;4193281;28;20483;-63
2022/04/29 02:41:48;;;;;;;6.47;3.30;;;14.90;63.10;;;;;;4179519;28;20415;-63
2022/04/29 02:44:10;;;;;;;7.32;3.40;;;14.90;63.10;;;;;;4179933;28;20056;-63
2022/04/29 02:46:35;;;;;;;5.45;3.50;;;14.90;63.10;;;;;;4175337;28;20091;-63
2022/04/29 02:49:02;;;;;;;5.85;3.42;;;14.90;63.20;;;;;;4190791;28;20049;-63
2022/04/29 02:51:25;;;;;;;7.47;3.33;;;14.80;63.10;;;;;;4178326;28;20056;-63
2022/04/29 02:53:47;;;;;;;8.38;3.97;;;14.90;63.10;;;;;;4188946;28;20060;-63
2022/04/29 02:56:11;;;;;;;3.63;3.10;;;14.90;63.10;;;;;;4188848;28;20132;-63
2022/04/29 02:58:53;;;;;;;7.57;3.58;;;14.80;63.10;;;;;;4174089;28;20051;-64
2022/04/29 03:01:18;;;;;;;7.72;3.78;;;14.80;64.20;;;;;;4184430;28;20071;-63
2022/04/29 03:03:41;;;;;;;6.97;3.40;;;14.80;63.30;;;;;;4169282;28;20049;-63
2022/04/29 03:06:05;;;;;;;5.90;3.25;;;14.80;63.30;;;;;;4193828;28;20047;-63
2022/04/29 03:08:27;;;;;;;6.05;3.55;;;14.80;63.20;;;;;;4191009;28;20055;-63
2022/04/29 03:10:50;;;;;;;6.70;3.88;;;14.80;63.30;;;;;;4180581;28;20065;-63
2022/04/29 03:13:12;;;;;;;5.93;4.43;;;14.80;63.30;;;;;;4176346;28;20128;-63
2022/04/29 03:15:45;;;;;;;8.82;4.88;;;14.80;63.40;;;;;;4174688;28;20073;-65
2022/04/29 03:18:22;;;;;;;5.15;3.92;;;14.80;63.40;;;;;;4174314;28;20084;-63
2022/04/29 03:20:45;;;;;;;5.85;3.90;;;14.80;63.40;;;;;;4176862;28;20052;-64
2022/04/29 03:23:10;;;;;;;7.35;3.90;;;14.80;63.40;;;;;;4190292;28;20102;-64
2022/04/29 03:25:47;;;;;;;4.45;3.80;;;14.70;63.40;;;;;;4190252;28;20515;-63
2022/04/29 03:28:10;;;;;;;7.97;4.10;;;14.70;63.40;;;;;;4192447;28;20554;-66
2022/04/29 03:30:33;;;;;;;5.53;4.10;;;14.80;63.40;;;;;;4191639;28;20072;-63
2022/04/29 03:32:57;;;;;;;7.75;4.07;;;14.80;63.50;;;;;;4192119;28;20143;-64
2022/04/29 03:35:26;;;;;;;6.63;4.00;;;14.80;63.50;;;;;;4190230;28;20071;-63
2022/04/29 03:37:53;;;;;;;11.02;3.78;;;14.70;63.40;;;;;;4160531;28;20053;-65
2022/04/29 03:40:17;;;;;;;4.35;3.45;;;14.70;63.50;;;;;;4149981;28;20052;-66
2022/04/29 03:42:39;;;;;;;5.55;3.58;;;14.70;63.60;;;;;;4172845;28;20159;-64
2022/04/29 03:45:03;;;;;;;4.78;3.40;;;14.70;63.60;;;;;;4172959;28;20057;-64
2022/04/29 03:47:27;;;;;;;3.70;3.33;;;14.70;63.70;;;;;;4185450;28;20056;-65
2022/04/29 03:50:17;;;;;;;3.88;3.35;;;14.70;63.70;;;;;;4192396;28;20488;-63
2022/04/29 03:52:59;;;;;;;5.03;3.35;;;14.70;63.80;;;;;;4181777;28;20048;-63
2022/04/29 03:55:26;;;;;;;5.65;3.83;;;14.70;63.80;;;;;;4189826;28;20075;-64
2022/04/29 03:57:49;;;;;;;7.35;3.47;;;14.70;63.70;;;;;;4174820;28;20048;-64
2022/04/29 04:00:14;;;;;;;4.95;3.70;;;14.70;63.70;;;;;;4179781;28;20384;-64
2022/04/29 04:02:43;;;;;;;10.23;4.20;;;14.70;63.70;;;;;;4189387;28;20329;-64
2022/04/29 04:05:06;;;;;;;5.32;3.97;;;14.60;63.80;;;;;;4190259;28;20381;-63
2022/04/29 04:07:29;;;;;;;3.90;3.33;;;14.70;63.80;;;;;;4173511;28;20088;-63
2022/04/29 04:10:06;;;;;;;7.18;4.00;;;14.60;63.80;;;;;;4172583;28;20127;-63
2022/04/29 04:12:40;;;;;;;5.18;3.75;;;14.60;63.90;;;;;;4159252;28;20502;-63
2022/04/29 04:15:03;;;;;;;4.03;3.10;;;14.60;63.80;;;;;;4173791;28;20099;-63
2022/04/29 04:17:32;;;;;;;4.85;3.90;;;14.60;64.00;;;;;;4172368;28;20061;-63
2022/04/29 04:19:55;;;;;;;5.03;4.10;;;14.60;64.10;;;;;;4189384;28;20045;-63
2022/04/29 04:22:17;;;;;;;5.43;3.78;;;14.60;64.10;;;;;;4189377;28;20067;-63
2022/04/29 04:24:39;;;;;;;5.75;3.80;;;14.60;64.00;;;;;;4189280;28;20048;-64
2022/04/29 04:27:03;;;;;;;6.13;3.92;;;14.60;64.10;;;;;;4189513;28;20058;-63
2022/04/29 04:29:31;;;;;;;5.95;3.55;;;14.60;64.10;;;;;;4177069;28;20045;-63
2022/04/29 04:31:54;;;;;;;5.28;4.78;;;14.60;64.10;;;;;;4203377;28;20074;-63
2022/04/29 04:36:56;;;;;;;4.15;3.50;;;14.60;64.10;;;;;;4173955;28;20048;-62
2022/04/29 04:39:19;;;;;;;6.22;3.25;;;14.60;64.30;;;;;;4163824;28;20045;-62
2022/04/29 04:41:41;;;;;;;6.45;3.60;;;14.60;64.30;;;;;;4171802;28;20484;-63
2022/04/29 04:44:05;;;;;;;5.30;3.70;;;14.60;64.30;;;;;;4172532;28;20052;-63
2022/04/29 04:46:29;;;;;;;4.78;3.45;;;14.60;64.30;;;;;;4175160;28;20048;-63
2022/04/29 04:49:15;;;;;;;5.50;3.90;;;14.60;64.40;;;;;;4164133;28;20210;-64
2022/04/29 04:51:54;;;;;;;6.05;4.00;;;14.50;64.30;;;;;;4183532;28;20045;-63
2022/04/29 04:54:23;;;;;;;5.60;3.67;;;14.60;64.40;;;;;;4171632;28;20053;-63
2022/04/29 04:56:45;;;;;;;7.43;3.88;;;14.60;64.50;;;;;;4172114;28;20040;-63
2022/04/29 04:59:09;;;;;;;7.13;3.70;;;14.50;64.40;;;;;;4173160;28;20091;-63
2022/04/29 05:01:33;;;;;;;4.20;3.88;;;14.50;64.50;;;;;;4172334;28;20510;-64
2022/04/29 05:04:04;;;;;;;7.47;3.92;;;14.50;64.50;;;;;;4174011;28;20052;-63
2022/04/29 05:06:46;;;;;;;5.25;3.60;;;14.50;64.50;;;;;;4188786;28;20119;-63
2022/04/29 05:09:09;;;;;;;5.00;4.07;;;14.50;64.50;;;;;;4192764;28;20048;-63
2022/04/29 05:11:32;;;;;;;8.70;5.07;;;14.50;64.60;;;;;;4192103;28;20083;-63
2022/04/29 05:14:35;;;;;;;5.32;3.80;;;14.50;65.40;;;;;;4191789;28;20391;-63
2022/04/29 05:16:59;;;;;;;5.07;4.57;;;14.50;64.60;;;;;;4164863;28;20095;-63
2022/04/29 05:19:53;;;;;;;5.10;4.13;;;14.50;64.60;;;;;;4184600;28;20052;-64
2022/04/29 05:22:20;;;;;;;4.93;3.63;;;14.50;64.70;;;;;;4191751;28;20048;-64
2022/04/29 05:24:43;;;;;;;17.10;4.93;;;14.50;64.70;;;;;;4190711;28;20487;-64
2022/04/29 05:27:31;;;;;;;9.05;4.97;;;14.50;64.80;;;;;;4177318;28;20053;-63
2022/04/29 05:30:23;;;;;;;4.70;4.25;;;14.50;64.90;;;;;;4117391;28;20050;-63
2022/04/29 05:33:09;;;;;;;10.90;4.93;;;14.50;64.90;;;;;;4180788;28;20495;-63
2022/04/29 05:35:51;;;;;;;6.15;4.53;;;14.50;64.80;;;;;;4184995;28;20052;-63
2022/04/29 05:44:11;;;;;;;6.05;4.13;;;14.60;65.00;;;;;;4181214;28;20044;-66
2022/04/29 05:46:35;;;;;;;5.50;3.80;;;14.60;65.00;;;;;;4183957;28;20459;-65
2022/04/29 05:48:59;;;;;;;7.60;3.70;;;14.50;64.90;;;;;;4179832;28;20553;-67
2022/04/29 05:51:27;;;;;;;7.03;3.95;;;14.60;65.00;;;;;;4161429;28;20041;-65
2022/04/29 05:53:49;;;;;;;5.57;3.38;;;14.60;64.90;;;;;;4183807;28;20052;-65
2022/04/29 05:56:12;;;;;;;7.25;4.20;;;14.60;64.90;;;;;;4190567;28;20135;-66
2022/04/29 05:58:35;;;;;;;4.90;3.42;;;14.60;64.90;;;;;;4191535;28;20477;-65
2022/04/29 06:01:20;;;;;;;14.57;3.78;;;14.60;64.90;;;;;;4193433;28;20047;-65
2022/04/29 06:03:42;;;;;;;4.85;3.25;;;14.60;65.00;;;;;;4191143;28;20614;-66
2022/04/29 06:06:07;;;;;;;7.53;3.63;;;14.50;65.00;;;;;;4182742;28;20098;-65
2022/04/29 06:08:32;;;;;;;6.55;3.33;;;14.60;64.90;;;;;;4192018;28;20063;-65
2022/04/29 06:10:54;;;;;;;6.90;4.13;;;14.60;64.40;;;;;;4193497;28;20044;-65
2022/04/29 06:13:20;;;;;;;5.57;3.83;;;14.60;64.70;;;;;;4161435;28;20049;-64
2022/04/29 06:16:11;;;;;;;4.25;2.83;;;14.60;64.10;;;;;;4159959;28;20063;-63
2022/04/29 06:18:52;;;;;;;6.47;4.25;;;14.60;64.50;;;;;;4168745;28;20045;-64
2022/04/29 06:21:42;;;;;;;6.75;2.90;;;14.60;64.80;;;;;;4168688;28;20060;-64
2022/04/29 06:24:16;;;;;;;13.90;4.40;;;14.60;64.90;;;;;;4175359;28;20045;-64
2022/04/29 06:26:38;;;;;;;10.98;4.95;;;14.60;64.70;;;;;;4175639;28;20048;-64
2022/04/29 06:29:01;;;;;;;7.15;4.32;;;14.60;63.70;;;;;;4191233;28;20053;-64
2022/04/29 06:31:24;;;;;;;7.22;3.90;;;14.60;62.10;;;;;;4190775;28;20049;-64
2022/04/29 06:34:06;;;;;;;7.18;3.50;;;14.60;60.30;;;;;;4176777;28;20126;-64
2022/04/29 06:36:30;;;;;;;11.65;3.13;;;14.60;60.50;;;;;;4175060;28;20103;-64
2022/04/29 06:38:56;;;;;;;4.65;3.50;;;14.60;64.10;;;;;;4174509;28;20052;-64
2022/04/29 06:41:42;;;;;;;12.27;5.35;;;14.60;64.10;;;;;;4166604;28;20060;-64
2022/04/29 06:44:15;;;;;;;2.90;2.20;;;14.60;62.30;;;;;;4162592;28;20424;-64
2022/04/29 06:46:40;;;;;;;5.22;2.55;;;14.60;60.30;;;;;;4159375;28;20095;-64
2022/04/29 06:49:34;;;;;;;6.13;3.05;;;14.60;61.20;;;;;;4140432;28;20052;-64
2022/04/29 06:52:15;;;;;;;8.63;2.88;;;14.50;61.80;;;;;;4159524;28;20439;-63
2022/04/29 06:54:48;;;;;;;;;;;14.50;61.30;;;;;;4159321;28;20052;-65
2022/04/29 06:57:10;;;;;;;3.08;2.40;;;14.40;61.20;;;;;;4157292;28;20287;-64
2022/04/29 06:59:33;;;;;;;5.43;2.30;;;14.40;61.50;;;;;;4166283;28;20049;-64
2022/04/29 07:01:55;;;;;;;3.45;1.83;;;14.40;61.40;;;;;;4188940;28;20206;-64
2022/04/29 07:04:17;;;;;;;3.35;1.92;;;14.40;61.60;;;;;;4181665;28;20045;-65
2022/04/29 07:06:41;;;;;;;2.67;1.60;;;14.40;59.90;;;;;;4173827;28;20053;-65
2022/04/29 07:09:04;;;;;;;2.78;1.92;;;14.40;59.90;;;;;;4174237;28;20053;-65
2022/04/29 07:11:49;;;;;;;7.10;2.55;;;14.30;59.50;;;;;;4175073;28;20048;-65
2022/04/29 07:14:23;;;;;;;6.55;2.10;;;14.30;59.50;;;;;;4170731;28;20048;-65
2022/04/29 07:17:01;;;;;;;3.72;2.55;;;14.30;59.30;;;;;;4178729;28;20059;-65
2022/04/29 07:19:47;;;;;;;4.75;2.22;;;14.30;59.30;;;;;;4196282;28;20048;-65
2022/04/29 07:22:27;;;;;;;11.50;2.30;;;14.30;59.70;;;;;;4172751;28;20053;-66
2022/04/29 07:24:51;;;;;;;5.43;2.10;;;14.30;59.80;;;;;;4183931;28;20533;-65
2022/04/29 07:27:17;;;;;;;2.78;1.80;;;14.30;59.70;;;;;;4177503;28;20040;-65
2022/04/29 07:29:40;;;;;;;5.43;2.08;;;14.30;59.20;;;;;;4185330;28;20129;-65
2022/04/29 07:32:17;;;;;;;2.95;2.35;;;14.20;59.50;;;;;;4190568;28;20044;-65
2022/04/29 07:43:08;;;;;;;8.35;1.67;;;14.30;60.00;;;;;;4198244;28;20052;-64
2022/04/29 07:45:31;;;;;;;4.28;1.50;;;14.30;59.80;;;;;;4181563;28;20494;-65
2022/04/29 07:48:12;;;;;;;5.85;1.80;;;14.20;60.00;;;;;;4191765;28;20047;-65
2022/04/29 07:50:35;;;;;;;4.78;1.58;;;14.30;60.30;;;;;;4187567;28;20506;-64
2022/04/29 07:52:58;;;;;;;3.28;1.98;;;14.30;59.70;;;;;;4186607;28;20045;-65
2022/04/29 07:55:20;;;;;;;2.67;1.77;;;14.30;60.10;;;;;;4162552;28;20568;-66
2022/04/29 07:57:42;;;;;;;4.75;1.75;;;14.30;60.80;;;;;;4186195;28;20072;-64
2022/04/29 08:00:15;;;;;;;9.68;2.30;;;14.30;61.20;;;;;;4198354;28;20045;-66
2022/04/29 08:02:40;;;;;;;3.70;1.60;;;14.30;60.10;;;;;;4191695;28;20492;-64
2022/04/29 08:05:04;;;;;;;5.18;1.90;;;14.30;59.50;;;;;;4187803;28;20590;-65
2022/04/29 08:07:27;;;;;;;2.88;2.05;;;14.30;59.60;;;;;;4195038;28;20054;-65
2022/04/29 08:09:49;;;;;;;5.55;2.10;;;14.30;59.20;;;;;;4192767;28;20492;-64
2022/04/29 08:12:13;;;;;;;3.67;1.80;;;14.30;59.40;;;;;;4160536;28;20045;-65
2022/04/29 08:15:15;;;;;;;3.65;1.65;;;14.30;59.00;;;;;;4138672;28;20576;-64
2022/04/29 08:17:46;;;;;;;2.72;1.40;;;14.30;59.70;;;;;;4110719;28;20070;-65
2022/04/29 08:20:11;;;;;;;4.38;1.70;;;14.30;59.20;;;;;;4151159;28;20056;-65
2022/04/29 08:22:40;;;;;;;2.05;1.35;;;14.40;59.40;;;;;;4173638;28;20672;-63
2022/04/29 08:25:02;;;;;;;4.53;1.77;;;14.30;59.30;;;;;;4185961;28;20094;-64
2022/04/29 08:27:24;;;;;;;4.60;1.70;;;14.30;59.80;;;;;;4179984;28;20527;-65
2022/04/29 08:29:53;;;;;;;2.45;1.73;;;14.30;59.70;;;;;;4190217;28;20872;-65
2022/04/29 08:32:16;;;;;;;7.40;1.92;;;14.30;60.00;;;;;;4176416;28;20548;-65
2022/04/29 08:34:42;;;;;;;7.18;1.50;;;14.30;60.00;;;;;;4187766;28;20102;-66
2022/04/29 08:37:05;;;;;;;3.90;1.70;;;14.30;59.70;;;;;;4188883;28;20123;-65
2022/04/29 08:39:33;;;;;;;4.65;1.70;;;14.30;59.70;;;;;;4181941;28;20106;-65
2022/04/29 08:42:00;;;;;;;2.00;1.50;;;14.30;59.80;;;;;;4186215;28;20126;-65
2022/04/29 08:44:23;;;;;;;8.73;1.73;;;14.30;60.10;;;;;;4190805;28;20107;-65
2022/04/29 08:46:50;;;;;;;3.65;1.90;;;14.30;60.30;;;;;;4183384;28;20052;-65
2022/04/29 08:49:35;;;;;;;6.63;1.30;;;14.30;60.40;;;;;;4158692;28;20050;-65
2022/04/29 08:52:02;;;;;;;5.97;1.55;;;14.30;60.60;;;;;;4175983;28;20135;-65
2022/04/29 08:59:49;;;;;;;2.80;1.48;;;14.30;60.70;;;;;;4177713;28;20073;-65
2022/04/29 09:02:11;;;;;;;4.30;1.65;;;14.30;60.20;;;;;;4186242;28;20044;-65
2022/04/29 09:04:36;;;;;;;4.40;1.70;;;14.30;60.40;;;;;;4174957;28;20519;-65
2022/04/29 09:06:58;;;;;;;5.60;2.05;;;14.30;61.80;;;;;;4176807;28;20468;-65
2022/04/29 09:09:21;;;;;;;3.50;1.95;;;14.30;60.50;;;;;;4176566;28;20056;-65
2022/04/29 09:11:44;;;;;;;3.10;2.15;;;14.30;60.40;;;;;;4175752;28;20107;-64
2022/04/29 09:14:20;;;;;;;5.47;2.22;;;14.30;60.40;;;;;;4190211;28;20045;-65
2022/04/29 09:16:46;;;;;;;4.93;2.25;;;14.30;60.70;;;;;;4183641;28;20404;-65
2022/04/29 09:19:09;;;;;;;2.88;2.40;;;14.30;60.50;;;;;;4175342;28;20072;-65
2022/04/29 09:21:33;;;;;;;4.55;2.50;;;14.20;60.10;;;;;;4175414;28;20049;-65
2022/04/29 09:23:57;;;;;;;3.38;2.13;;;14.20;61.00;;;;;;4174656;28;20051;-65
2022/04/29 09:26:23;;;;;;;3.10;2.50;;;14.20;60.00;;;;;;4175072;28;20155;-65
2022/04/29 09:29:14;;;;;;;4.00;3.15;;;14.20;59.70;;;;;;4186580;28;20109;-63
2022/04/29 09:31:58;;;;;;;5.50;2.60;;;14.20;60.00;;;;;;4163661;28;20045;-62
2022/04/29 09:35:01;;;;;;;8.75;3.28;;;14.20;60.10;;;;;;4147455;28;20045;-63
2022/04/29 09:37:26;;;;;;;3.55;3.20;;;14.20;60.30;;;;;;4169384;28;20128;-62
2022/04/29 09:39:51;;;;;;;8.43;3.80;;;14.20;60.40;;;;;;4156632;28;20045;-62
2022/04/29 09:42:14;;;;;;;7.63;3.65;;;14.20;60.00;;;;;;4158479;28;20053;-62
2022/04/29 09:44:38;;;;;;;2.75;2.20;;;14.20;60.00;;;;;;4163986;28;20056;-63
2022/04/29 09:47:11;;;;;;;2.65;2.40;;;14.20;59.80;;;;;;4155762;28;20545;-67
2022/04/29 09:49:34;;;;;;;5.25;2.97;;;14.20;59.60;;;;;;4158596;28;20520;-66
2022/04/29 09:51:56;;;;;;;4.97;2.78;;;14.20;59.70;;;;;;4161854;28;20049;-65
2022/04/29 09:54:22;;;;;;;5.85;2.50;;;14.20;59.70;;;;;;4167542;28;20480;-63
2022/04/29 09:56:46;;;;;;;5.05;2.70;;;14.20;59.70;;;;;;4181943;28;20076;-63
2022/04/29 09:59:09;;;;;;;3.42;2.55;;;14.20;60.00;;;;;;4175887;28;20063;-62
2022/04/29 10:01:30;;;;;;;4.00;2.50;;;14.20;59.80;;;;;;4163311;28;20524;-63
2022/04/29 10:03:53;;;;;;;3.55;2.72;;;14.20;59.60;;;;;;4161514;28;20048;-62
2022/04/29 10:06:20;;;;;;;4.07;3.05;;;14.20;59.50;;;;;;4166698;28;20051;-64
2022/04/29 10:08:44;;;;;;;5.65;2.17;;;14.20;59.60;;;;;;4177470;28;20127;-64
2022/04/29 10:11:08;;;;;;;4.75;2.63;;;14.20;60.00;;;;;;4177645;28;20472;-64
2022/04/29 10:13:32;;;;;;;7.32;2.78;;;14.20;59.80;;;;;;4174982;28;20049;-65
2022/04/29 10:16:12;;;;;;;6.63;3.22;;;14.20;59.70;;;;;;4175760;28;20511;-64
2022/04/29 10:22:24;;;;;;;4.65;3.75;;;14.20;59.60;;;;;;4161417;28;20072;-64
2022/04/29 10:24:47;;;;;;;5.28;3.72;;;14.20;60.00;;;;;;4175350;28;20044;-62
2022/04/29 10:27:11;;;;;;;4.65;2.92;;;14.20;60.00;;;;;;4161504;28;20045;-63
2022/04/29 10:29:33;;;;;;;5.43;2.63;;;14.20;59.90;;;;;;4159112;28;20073;-64
2022/04/29 10:32:05;;;;;;;5.30;2.70;;;14.20;59.70;;;;;;4160700;28;20752;-64
2022/04/29 10:34:29;;;;;;;4.43;3.42;;;14.20;59.40;;;;;;4164360;28;20135;-63
2022/04/29 10:36:51;;;;;;;6.00;4.70;;;14.20;59.70;;;;;;4172578;28;20048;-63
2022/04/29 10:39:18;;;;;;;8.10;5.35;;;14.20;59.80;;;;;;4182947;28;20126;-63
2022/04/29 10:41:58;;;;;;;5.38;4.72;;;14.20;59.10;;;;;;4177530;28;20053;-64
2022/04/29 10:44:22;;;;;;;7.20;4.60;;;14.30;59.30;;;;;;4170149;28;20053;-63
2022/04/29 10:46:45;;;;;;;5.05;4.55;;;14.30;59.80;;;;;;4169355;28;20586;-63
2022/04/29 10:49:26;;;;;;;6.85;4.90;;;14.30;59.20;;;;;;4191489;28;20044;-63
2022/04/29 10:52:25;;;;;;;6.15;4.28;;;14.30;59.30;;;;;;4179599;28;20155;-64
2022/04/29 10:55:00;;;;;;;5.60;4.55;;;14.30;58.90;;;;;;4192883;28;20051;-63
2022/04/29 10:57:38;;;;;;;6.53;4.72;;;14.30;58.70;;;;;;4191941;28;20052;-64
2022/04/29 11:00:11;;;;;;;8.57;4.78;;;14.30;59.00;;;;;;4181391;28;20135;-63
2022/04/29 11:02:37;;;;;;;5.32;4.20;;;14.30;58.90;;;;;;4184612;28;20053;-63
2022/04/29 11:05:01;;;;;;;7.55;4.93;;;14.30;58.60;;;;;;4174965;28;20698;-62
2022/04/29 11:07:34;;;;;;;8.30;3.80;;;14.30;58.30;;;;;;4188553;28;20530;-61
2022/04/29 11:10:00;;;;;;;4.32;3.47;;;14.30;58.30;;;;;;4182065;28;20488;-61
2022/04/29 11:12:30;;;;;;;6.38;4.32;;;14.30;58.60;;;;;;4181181;28;20064;-60
2022/04/29 11:15:24;;;;;;;6.03;3.15;;;14.30;58.30;;;;;;4116566;28;20055;-61
2022/04/29 11:18:19;;;;;;;5.22;3.70;;;14.30;58.20;;;;;;4179467;28;20051;-61
2022/04/29 11:20:47;;;;;;;4.20;3.78;;;14.30;57.90;;;;;;4191387;28;20090;-62
2022/04/29 11:25:53;;;;;;;7.18;3.53;;;14.30;57.50;;;;;;4192972;28;20110;-62
2022/04/29 11:28:25;;;;;;;6.40;3.15;;;14.30;57.50;;;;;;4189962;28;20101;-63
2022/04/29 11:31:13;;;;;;;5.22;2.95;;;14.30;58.10;;;;;;4156227;28;20059;-62
2022/04/29 11:33:35;;;;;;;4.75;3.20;;;14.30;57.50;;;;;;4174441;28;20127;-63
2022/04/29 11:36:04;;;;;;;8.10;4.25;;;14.30;57.30;;;;;;4159932;28;20045;-61
2022/04/29 11:38:27;;;;;;;5.43;4.65;;;14.30;57.20;;;;;;4176274;28;20056;-61
2022/04/29 11:40:49;;;;;;;5.38;3.83;;;14.30;57.10;;;;;;4189229;28;20047;-62
2022/04/29 11:43:11;;;;;;;7.72;4.10;;;14.30;57.10;;;;;;4185931;28;20060;-62
2022/04/29 11:45:35;;;;;;;4.70;3.65;;;14.30;56.80;;;;;;4191823;28;20052;-62
2022/04/29 11:48:07;;;;;;;6.22;3.95;;;14.30;56.70;;;;;;4190955;28;20045;-62
2022/04/29 11:50:33;;;;;;;4.68;4.15;;;14.30;57.00;;;;;;4191461;28;20068;-61
2022/04/29 11:53:04;;;;;;;6.70;4.00;;;14.30;57.30;;;;;;4190041;28;20094;-62
2022/04/29 11:55:26;;;;;;;4.78;4.15;;;14.30;57.30;;;;;;4189304;28;20139;-62
2022/04/29 11:57:50;;;;;;;5.25;3.63;;;14.30;57.30;;;;;;4189074;28;20537;-60
2022/04/29 12:00:24;;;;;;;4.78;3.08;;;14.30;57.30;;;;;;4187774;28;20423;-63
2022/04/29 12:02:50;;;;;;;3.47;2.80;;;14.30;57.40;;;;;;4189471;28;20498;-62
2022/04/29 12:05:14;;;;;;;5.28;3.25;;;14.40;58.00;;;;;;4173585;28;20059;-62
2022/04/29 12:07:42;;;;;;;5.75;3.13;;;14.40;56.80;;;;;;4187950;28;20454;-63
2022/04/29 12:10:17;;;;;;;7.32;3.53;;;14.40;57.30;;;;;;4187788;28;20052;-63
2022/04/29 12:12:40;;;;;;;6.13;3.60;;;14.40;57.10;;;;;;4190047;28;20047;-63
2022/04/29 12:15:11;;;;;;;8.65;3.58;;;14.40;56.70;;;;;;4187400;28;20044;-63
2022/04/29 12:17:35;;;;;;;6.80;3.00;;;14.50;56.80;;;;;;4187665;28;20703;-63
2022/04/29 12:19:57;;;;;;;3.83;3.22;;;14.50;56.80;;;;;;4189638;28;20068;-64
2022/04/29 12:22:30;;;;;;;5.75;2.70;;;14.50;56.50;;;;;;4188213;28;20058;-62
2022/04/29 12:24:52;;;;;;;6.03;2.95;;;14.50;56.80;;;;;;4187672;28;20483;-63
2022/04/29 12:27:16;;;;;;;10.77;2.25;;;14.50;56.50;;;;;;4186726;28;20045;-63
2022/04/29 12:29:40;;;;;;;3.47;2.00;;;14.50;56.70;;;;;;4160309;28;20037;-63
2022/04/29 12:35:08;;;;;;;4.70;2.45;;;14.50;55.80;;;;;;4187234;28;20147;-63
2022/04/29 12:37:32;;;;;;;4.72;2.00;;;14.60;56.00;;;;;;4188895;28;20053;-63
2022/04/29 12:40:04;;;;;;;5.80;2.30;;;14.50;55.90;;;;;;4189561;28;20048;-62
2022/04/29 12:42:34;;;;;;;3.40;2.00;;;14.60;55.70;;;;;;4187916;28;20126;-62
2022/04/29 12:45:10;;;;;;;3.00;1.95;;;14.60;55.70;;;;;;4201369;28;20051;-62
2022/04/29 12:47:42;;;;;;;4.25;2.20;;;14.60;55.90;;;;;;4188896;28;20050;-63
2022/04/29 12:50:23;;;;;;;1.67;1.58;;;14.60;55.60;;;;;;4189242;28;20067;-63
2022/04/29 12:52:59;;;;;;;5.47;2.08;;;14.60;55.50;;;;;;4186370;28;20590;-62
2022/04/29 12:55:23;;;;;;;3.83;1.80;;;14.60;55.40;;;;;;4201133;28;20485;-62
2022/04/29 12:57:48;;;;;;;2.25;2.15;;;14.60;55.50;;;;;;4188557;28;20040;-62
2022/04/29 13:00:21;;;;;;;3.08;2.53;;;14.60;55.40;;;;;;4188898;28;20147;-62
2022/04/29 13:03:00;;;;;;;5.95;3.10;;;14.50;55.30;;;;;;4187958;28;20045;-63
2022/04/29 13:05:23;;;;;;;4.07;3.13;;;14.50;55.90;;;;;;4173303;28;20053;-63
2022/04/29 13:07:45;;;;;;;4.13;3.25;;;14.60;56.00;;;;;;4189170;28;20037;-63
2022/04/29 13:10:10;;;;;;;3.13;2.65;;;14.50;56.20;;;;;;4180114;28;20052;-64
2022/04/29 13:12:33;;;;;;;4.55;2.47;;;14.50;56.20;;;;;;4188402;28;20040;-65
2022/04/29 13:15:08;;;;;;;6.40;2.78;;;14.50;57.00;;;;;;4186770;28;20497;-64
2022/04/29 13:17:30;;;;;;;3.75;2.75;;;14.50;56.30;;;;;;4186881;28;20048;-64
2022/04/29 13:19:53;;;;;;;3.75;2.42;;;14.50;56.40;;;;;;4187411;28;20131;-64